Panola, South Carolina
Current Conditions -  °F | °C
As of 8:49 PM on Monday 24 Nov 2014 (Local Time) from KSSC Reporting Station
Few Clouds Few Clouds  
Wind Chill: 17°   Ceiling: Unl
Heat Index: 17°   Visibility: 10mi
Dew Point: 16°   Wind: 6mph
Humidity: 94%   Direction: 220°SW
Pressure: 29.9"   Gusts: NA
Location:  33.7445°N, 80.5249°W
Report Text: KSSC 250149Z AUTO 22005KT 10SM FEW027 17/16 A2990 RMK AO2
Loading
Personal Weather Stations






























Interactive Weather Map New forecast layout! Learn more

10-Day Weather Forecast

Advertisements
Track Severe Weather on mobile